createdAt,value
2023-03-12T00:00:38.617Z,97176.78
2023-03-12T00:02:40.020Z,97175.44
2023-03-12T00:04:41.413Z,97169.06
2023-03-12T00:06:42.736Z,97172.94
2023-03-12T00:08:44.094Z,97176.00
2023-03-12T00:10:45.485Z,97180.97
2023-03-12T00:12:46.881Z,97179.91
2023-03-12T00:14:48.231Z,97175.63
2023-03-12T00:16:49.554Z,97183.31
2023-03-12T00:18:50.898Z,97181.59
2023-03-12T00:20:52.225Z,97182.56
2023-03-12T00:22:53.556Z,97186.00
2023-03-12T00:24:55.066Z,97181.94
2023-03-12T00:26:56.448Z,97185.47
2023-03-12T00:28:57.774Z,97186.75
2023-03-12T00:30:59.181Z,97187.69
2023-03-12T00:33:00.604Z,97189.63
2023-03-12T00:35:01.950Z,97191.53
2023-03-12T00:37:03.294Z,97195.09
2023-03-12T00:39:04.659Z,97188.50
2023-03-12T00:41:06.017Z,97188.69
2023-03-12T00:43:07.378Z,97190.66
2023-03-12T00:45:08.720Z,97191.69
2023-03-12T00:47:10.035Z,97194.47
2023-03-12T00:49:11.843Z,97197.28
2023-03-12T00:51:13.191Z,97197.41
2023-03-12T00:53:14.568Z,97197.47
2023-03-12T00:55:15.993Z,97196.72
2023-03-12T00:57:17.362Z,97198.53
2023-03-12T00:59:18.682Z,97196.09
2023-03-12T01:01:20.232Z,97191.84
2023-03-12T01:03:21.574Z,97196.31
2023-03-12T01:05:22.961Z,97194.72
2023-03-12T01:07:24.343Z,97190.50
2023-03-12T01:09:25.700Z,97190.66
2023-03-12T01:11:27.038Z,97186.50
2023-03-12T01:13:28.470Z,97187.31
2023-03-12T01:15:29.834Z,97186.53
2023-03-12T01:17:31.200Z,97187.38
2023-03-12T01:19:32.533Z,97190.88
2023-03-12T01:21:33.935Z,97180.66
2023-03-12T01:23:35.293Z,97185.78
2023-03-12T01:25:36.686Z,97187.56
2023-03-12T01:27:38.032Z,97181.66
2023-03-12T01:29:39.661Z,97174.06
2023-03-12T01:31:41.077Z,97180.84
2023-03-12T01:33:42.424Z,97186.84
2023-03-12T01:35:43.971Z,97186.84
2023-03-12T01:37:45.396Z,97193.66
2023-03-12T01:39:46.769Z,97191.09
2023-03-12T01:41:48.096Z,97190.25
2023-03-12T01:43:49.446Z,97194.31
2023-03-12T01:45:50.785Z,97194.19
2023-03-12T01:47:52.150Z,97194.97
2023-03-12T01:49:53.484Z,97193.22
2023-03-12T01:51:54.824Z,97200.75
2023-03-12T01:53:56.148Z,97198.03
2023-03-12T01:55:57.663Z,97208.06
2023-03-12T01:57:59.024Z,97205.25
2023-03-12T02:00:00.360Z,97213.56
2023-03-12T02:02:02.222Z,97207.34
2023-03-12T02:04:03.648Z,97208.09
2023-03-12T02:06:06.888Z,97208.03
2023-03-12T02:08:08.256Z,97210.44
2023-03-12T02:10:09.627Z,97206.16
2023-03-12T02:12:10.949Z,97213.00
2023-03-12T02:14:12.279Z,97215.59
2023-03-12T02:16:13.664Z,97209.81
2023-03-12T02:18:15.001Z,97213.41
2023-03-12T02:20:16.469Z,97215.84
2023-03-12T02:22:17.852Z,97215.16
2023-03-12T02:24:19.535Z,97217.88
2023-03-12T02:26:21.732Z,97218.88
2023-03-12T02:28:23.746Z,97216.13
2023-03-12T02:30:25.097Z,97213.56
2023-03-12T02:32:26.532Z,97213.72
2023-03-12T02:34:27.896Z,97220.53
2023-03-12T02:36:29.252Z,97216.31
2023-03-12T02:38:30.610Z,97218.88
2023-03-12T02:40:31.997Z,97219.63
2023-03-12T02:42:33.325Z,97212.81
2023-03-12T02:44:36.557Z,97226.53
2023-03-12T02:46:37.948Z,97226.66
2023-03-12T02:48:39.371Z,97221.66
2023-03-12T02:50:40.908Z,97226.81
2023-03-12T02:52:42.280Z,97228.53
2023-03-12T02:54:43.750Z,97223.41
2023-03-12T02:56:45.130Z,97232.88
2023-03-12T02:58:46.477Z,97231.16
2023-03-12T03:00:47.940Z,97228.72
2023-03-12T03:02:49.317Z,97227.88
2023-03-12T03:04:50.660Z,97229.59
2023-03-12T03:06:52.245Z,97232.09
2023-03-12T03:08:53.582Z,97231.25
2023-03-12T03:10:55.337Z,97243.13
2023-03-12T03:12:57.815Z,97238.75
2023-03-12T03:14:59.158Z,97238.66
2023-03-12T03:17:00.486Z,97241.16
2023-03-12T03:19:02.182Z,97236.84
2023-03-12T03:21:03.518Z,97243.56
2023-03-12T03:23:05.062Z,97235.94
2023-03-12T03:25:06.649Z,97241.88
2023-03-12T03:27:08.010Z,97242.72
2023-03-12T03:29:10.549Z,97246.97
2023-03-12T03:31:11.985Z,97256.03
2023-03-12T03:33:13.362Z,97254.97
2023-03-12T03:35:14.717Z,97259.25
2023-03-12T03:37:16.074Z,97262.66
2023-03-12T03:39:17.424Z,97260.09
2023-03-12T03:41:18.837Z,97261.88
2023-03-12T03:43:20.194Z,97274.72
2023-03-12T03:45:21.563Z,97263.66
2023-03-12T03:47:22.932Z,97270.38
2023-03-12T03:49:24.353Z,97276.31
2023-03-12T03:51:25.701Z,97277.50
2023-03-12T03:53:27.098Z,97273.28
2023-03-12T03:55:28.428Z,97274.34
2023-03-12T03:57:29.828Z,97284.63
2023-03-12T03:59:31.194Z,97288.94
2023-03-12T04:01:32.579Z,97286.22
2023-03-12T04:03:33.977Z,97272.78
2023-03-12T04:05:35.455Z,97280.47
2023-03-12T04:07:37.202Z,97271.97
2023-03-12T04:09:38.648Z,97280.50
2023-03-12T04:11:39.995Z,97284.88
2023-03-12T04:13:41.341Z,97283.22
2023-03-12T04:15:42.699Z,97281.63
2023-03-12T04:17:44.106Z,97285.78
2023-03-12T04:19:45.513Z,97285.78
2023-03-12T04:21:46.876Z,97284.19
2023-03-12T04:23:48.218Z,97291.97
2023-03-12T04:25:49.566Z,97291.06
2023-03-12T04:27:50.937Z,97283.16
2023-03-12T04:29:52.274Z,97279.66
2023-03-12T04:31:53.641Z,97292.44
2023-03-12T04:33:55.135Z,97293.47
2023-03-12T04:35:56.526Z,97287.50
2023-03-12T04:37:57.997Z,97292.56
2023-03-12T04:39:59.381Z,97299.38
2023-03-12T04:42:00.733Z,97294.34
2023-03-12T04:44:02.061Z,97296.78
2023-03-12T04:46:03.436Z,97303.47
2023-03-12T04:48:04.802Z,97305.88
2023-03-12T04:50:06.113Z,97314.31
2023-03-12T04:52:07.467Z,97314.25
2023-03-12T04:54:08.857Z,97308.16
2023-03-12T04:56:10.255Z,97313.72
2023-03-12T04:58:11.590Z,97308.69
2023-03-12T05:00:16.005Z,97307.94
2023-03-12T05:02:17.329Z,97311.44
2023-03-12T05:04:18.658Z,97313.16
2023-03-12T05:06:20.094Z,97311.34
2023-03-12T05:08:21.464Z,97309.69
2023-03-12T05:10:22.794Z,97322.66
2023-03-12T05:12:24.147Z,97327.94
2023-03-12T05:14:25.488Z,97328.94
2023-03-12T05:16:26.959Z,97322.16
2023-03-12T05:18:28.379Z,97329.91
2023-03-12T05:20:29.724Z,97332.47
2023-03-12T05:22:31.354Z,97332.59
2023-03-12T05:24:32.701Z,97336.09
2023-03-12T05:26:34.126Z,97336.13
2023-03-12T05:28:35.475Z,97335.34
2023-03-12T05:30:36.851Z,97337.91
2023-03-12T05:32:38.322Z,97329.50
2023-03-12T05:34:39.914Z,97332.97
2023-03-12T05:36:41.278Z,97335.53
2023-03-12T05:38:42.914Z,97339.03
2023-03-12T05:40:44.361Z,97339.91
2023-03-12T05:42:45.689Z,97344.19
2023-03-12T05:44:47.014Z,97340.78
2023-03-12T05:46:48.403Z,97344.13
2023-03-12T05:48:49.742Z,97341.59
2023-03-12T05:50:51.069Z,97340.69
2023-03-12T05:52:52.419Z,97339.81
2023-03-12T05:54:53.873Z,97337.25
2023-03-12T05:56:56.370Z,97341.41
2023-03-12T05:58:57.807Z,97340.47
2023-03-12T06:00:59.144Z,97347.91
2023-03-12T06:03:00.556Z,97346.06
2023-03-12T06:05:01.932Z,97350.00
2023-03-12T06:07:03.310Z,97350.66
2023-03-12T06:09:04.649Z,97342.88
2023-03-12T06:11:06.026Z,97351.16
2023-03-12T06:13:07.605Z,97344.22
2023-03-12T06:15:09.049Z,97339.81
2023-03-12T06:17:10.357Z,97347.50
2023-03-12T06:19:14.087Z,97345.03
2023-03-12T06:21:15.440Z,97351.16
2023-03-12T06:23:16.766Z,97356.34
2023-03-12T06:25:18.138Z,97353.88
2023-03-12T06:27:19.493Z,97353.16
2023-03-12T06:29:20.842Z,97358.38
2023-03-12T06:31:22.259Z,97362.72
2023-03-12T06:33:23.620Z,97204.94
2023-03-12T06:35:25.000Z,97361.19
2023-03-12T06:37:26.377Z,97362.13
2023-03-12T06:39:29.985Z,97358.75
2023-03-12T06:41:31.453Z,97360.53
2023-03-12T06:43:32.860Z,97362.28
2023-03-12T06:45:34.192Z,97362.31
2023-03-12T06:47:35.610Z,97358.16
2023-03-12T06:49:37.505Z,97359.94
2023-03-12T06:51:38.869Z,97363.44
2023-03-12T06:53:42.371Z,97362.69
2023-03-12T06:55:46.992Z,97362.75
2023-03-12T06:57:48.329Z,97361.22
2023-03-12T06:59:50.701Z,97371.63
2023-03-12T07:01:52.181Z,97361.47
2023-03-12T07:03:53.649Z,97370.09
2023-03-12T07:05:55.001Z,97363.47
2023-03-12T07:07:56.337Z,97361.88
2023-03-12T07:09:57.713Z,97362.72
2023-03-12T07:11:59.125Z,97363.56
2023-03-12T07:14:00.798Z,97360.94
2023-03-12T07:16:02.178Z,97356.66
2023-03-12T07:18:03.729Z,97360.84
2023-03-12T07:20:05.222Z,97359.06
2023-03-12T07:22:06.610Z,97360.66
2023-03-12T07:24:08.894Z,97369.06
2023-03-12T07:26:10.288Z,97368.91
2023-03-12T07:28:11.641Z,97362.75
2023-03-12T07:30:12.974Z,97366.66
2023-03-12T07:32:14.365Z,97375.69
2023-03-12T07:34:16.026Z,97373.50
2023-03-12T07:36:17.992Z,97365.63
2023-03-12T07:38:19.616Z,97374.91
2023-03-12T07:40:21.037Z,97369.91
2023-03-12T07:42:22.469Z,97371.50
2023-03-12T07:44:26.215Z,97370.75
2023-03-12T07:46:31.047Z,97366.59
2023-03-12T07:48:32.413Z,97371.69
2023-03-12T07:50:33.748Z,97379.41
2023-03-12T07:52:35.148Z,97381.97
2023-03-12T07:54:36.519Z,97376.50
2023-03-12T07:56:37.984Z,97377.19
2023-03-12T07:58:39.619Z,97370.13
2023-03-12T08:00:41.016Z,97381.28
2023-03-12T08:02:42.535Z,97377.03
2023-03-12T08:04:44.318Z,97373.16
2023-03-12T08:06:45.878Z,97375.97
2023-03-12T08:08:47.845Z,97381.16
2023-03-12T08:10:49.337Z,97382.09
2023-03-12T08:12:50.767Z,97385.38
2023-03-12T08:14:52.206Z,97387.03
2023-03-12T08:16:53.596Z,97386.03
2023-03-12T08:18:55.092Z,97386.03
2023-03-12T08:20:56.641Z,97392.84
2023-03-12T08:22:57.973Z,97389.34
2023-03-12T08:24:59.381Z,97387.63
2023-03-12T08:27:00.708Z,97395.28
2023-03-12T08:29:02.086Z,97397.88
2023-03-12T08:31:03.693Z,97392.97
2023-03-12T08:33:05.125Z,97393.16
2023-03-12T08:35:06.526Z,97402.69
2023-03-12T08:37:07.939Z,97400.22
2023-03-12T08:39:09.354Z,97390.91
2023-03-12T08:41:10.816Z,97394.88
2023-03-12T08:43:12.190Z,97393.34
2023-03-12T08:45:14.177Z,97403.06
2023-03-12T08:47:15.557Z,97396.22
2023-03-12T08:49:16.942Z,97393.88
2023-03-12T08:51:18.568Z,97396.81
2023-03-12T08:53:20.028Z,97390.09
2023-03-12T08:55:21.404Z,97386.34
2023-03-12T08:57:22.794Z,97385.16
2023-03-12T08:59:24.193Z,97394.19
2023-03-12T09:01:25.567Z,97392.97
2023-03-12T09:03:27.024Z,97398.38
2023-03-12T09:05:30.139Z,97397.41
2023-03-12T09:07:31.544Z,97394.44
2023-03-12T09:09:32.875Z,97398.31
2023-03-12T09:11:34.315Z,97392.47
2023-03-12T09:13:57.800Z,97385.09
2023-03-12T09:15:56.982Z,97385.75
2023-03-12T09:17:58.336Z,97375.59
2023-03-12T09:20:00.210Z,97382.00
2023-03-12T09:22:02.250Z,97378.78
2023-03-12T09:24:06.746Z,97372.19
2023-03-12T09:26:08.125Z,97376.56
2023-03-12T09:28:09.460Z,97367.69
2023-03-12T09:30:11.603Z,97365.19
2023-03-12T09:32:15.401Z,97373.72
2023-03-12T09:34:16.727Z,97377.25
2023-03-12T09:36:18.115Z,97384.19
2023-03-12T09:38:19.458Z,97380.31
2023-03-12T09:40:20.804Z,97370.25
2023-03-12T09:42:22.987Z,97379.47
2023-03-12T09:44:24.311Z,97384.91
2023-03-12T09:46:25.853Z,97382.81
2023-03-12T09:48:27.181Z,97380.38
2023-03-12T09:50:28.502Z,97378.47
2023-03-12T09:52:29.876Z,97380.22
2023-03-12T09:54:31.200Z,97382.56
2023-03-12T09:56:32.579Z,97378.69
2023-03-12T09:58:33.951Z,97383.38
2023-03-12T10:00:35.414Z,97374.22
2023-03-12T10:02:36.816Z,97380.41
2023-03-12T10:04:56.288Z,97374.56
2023-03-12T10:06:59.514Z,97377.41
2023-03-12T10:09:00.896Z,97375.22
2023-03-12T10:11:02.394Z,97385.75
2023-03-12T10:13:03.777Z,97379.22
2023-03-12T10:15:05.190Z,97372.75
2023-03-12T10:17:06.520Z,97367.03
2023-03-12T10:19:10.535Z,97368.88
2023-03-12T10:21:11.997Z,97371.41
2023-03-12T10:23:13.345Z,97366.97
2023-03-12T10:25:17.402Z,97364.25
2023-03-12T10:27:19.023Z,97364.03
2023-03-12T10:29:20.370Z,97388.59
2023-03-12T10:31:21.726Z,97366.19
2023-03-12T10:33:23.172Z,97360.03
2023-03-12T10:35:27.521Z,97361.50
2023-03-12T10:37:31.589Z,97366.47
2023-03-12T10:39:32.940Z,97358.28
2023-03-12T10:41:34.985Z,97362.84
2023-03-12T10:43:36.467Z,97358.44
2023-03-12T10:45:37.814Z,97360.97
2023-03-12T10:47:39.153Z,97358.56
2023-03-12T10:49:40.476Z,97361.06
2023-03-12T10:51:41.837Z,97361.94
2023-03-12T10:53:44.858Z,97358.59
2023-03-12T10:55:46.699Z,97354.38
2023-03-12T10:57:48.060Z,97340.03
2023-03-12T10:59:50.963Z,97344.38
2023-03-12T11:01:52.447Z,97349.50
2023-03-12T11:03:59.789Z,97345.28
2023-03-12T11:06:01.182Z,97348.00
2023-03-12T11:08:02.623Z,97347.28
2023-03-12T11:10:03.997Z,97339.00
2023-03-12T11:12:05.361Z,97348.41
2023-03-12T11:14:06.693Z,97342.34
2023-03-12T11:16:08.059Z,97348.22
2023-03-12T11:18:09.449Z,97337.13
2023-03-12T11:20:14.078Z,97332.44
2023-03-12T11:22:16.361Z,97324.47
2023-03-12T11:24:17.692Z,97325.00
2023-03-12T11:26:19.398Z,97317.63
2023-03-12T11:28:20.902Z,97312.31
2023-03-12T11:30:22.349Z,97307.78
2023-03-12T11:32:23.789Z,97308.06
2023-03-12T11:34:25.201Z,97294.78
2023-03-12T11:36:26.529Z,97302.09
2023-03-12T11:38:28.016Z,97300.97
2023-03-12T11:40:29.362Z,97304.34
2023-03-12T11:42:30.736Z,97296.50
2023-03-12T11:44:34.868Z,97291.50
2023-03-12T11:46:36.857Z,97289.97
2023-03-12T11:48:38.255Z,97285.84
2023-03-12T11:50:39.640Z,97279.84
2023-03-12T11:52:40.981Z,97278.97
2023-03-12T11:54:42.329Z,97287.53
2023-03-12T11:56:43.712Z,97289.31
2023-03-12T11:58:45.068Z,97288.69
2023-03-12T12:00:47.936Z,97290.50
2023-03-12T12:02:55.470Z,97285.44
2023-03-12T12:04:56.854Z,97291.56
2023-03-12T12:06:58.184Z,97289.09
2023-03-12T12:08:59.551Z,97285.03
2023-03-12T12:11:00.889Z,97278.34
2023-03-12T12:13:02.257Z,97285.25
2023-03-12T12:15:03.719Z,97273.28
2023-03-12T12:17:10.744Z,97269.13
2023-03-12T12:19:12.132Z,97268.34
2023-03-12T12:21:13.474Z,97257.34
2023-03-12T12:23:15.181Z,97254.88
2023-03-12T12:25:16.676Z,97251.38
2023-03-12T12:27:18.052Z,97245.47
2023-03-12T12:29:19.590Z,97237.00
2023-03-12T12:31:21.002Z,97231.91
2023-03-12T12:33:24.786Z,97244.75
2023-03-12T12:35:26.492Z,97218.47
2023-03-12T12:37:27.821Z,97209.19
2023-03-12T12:39:29.146Z,97214.31
2023-03-12T12:41:30.482Z,97214.31
2023-03-12T12:43:32.795Z,97213.41
2023-03-12T12:45:34.173Z,97204.84
2023-03-12T12:47:35.569Z,97202.13
2023-03-12T12:49:36.965Z,97207.09
2023-03-12T12:51:38.359Z,97217.91
2023-03-12T12:53:39.758Z,97210.97
2023-03-12T12:55:41.231Z,97213.28
2023-03-12T12:57:42.717Z,97201.69
2023-03-12T12:59:44.057Z,97054.66
2023-03-12T13:01:45.434Z,97209.28
2023-03-12T13:03:47.175Z,97205.84
2023-03-12T13:05:50.359Z,97204.94
2023-03-12T13:07:51.686Z,97204.94
2023-03-12T13:09:53.083Z,97205.19
2023-03-12T13:11:54.411Z,97206.19
2023-03-12T13:13:55.743Z,97207.22
2023-03-12T13:15:57.112Z,97201.53
2023-03-12T13:17:58.552Z,97197.41
2023-03-12T13:20:01.694Z,97201.03
2023-03-12T13:22:03.296Z,97200.34
2023-03-12T13:24:04.625Z,97204.72
2023-03-12T13:26:06.177Z,97193.78
2023-03-12T13:28:07.514Z,97192.22
2023-03-12T13:30:08.866Z,97046.66
2023-03-12T13:32:10.248Z,97189.91
2023-03-12T13:34:11.568Z,97190.84
2023-03-12T13:36:13.023Z,97190.97
2023-03-12T13:38:14.483Z,97179.13
2023-03-12T13:40:15.832Z,97185.19
2023-03-12T13:42:20.161Z,97192.91
2023-03-12T13:44:21.498Z,97185.38
2023-03-12T13:46:23.058Z,97178.66
2023-03-12T13:48:24.596Z,97178.59
2023-03-12T13:50:25.930Z,97176.88
2023-03-12T13:52:27.396Z,97191.34
2023-03-12T13:54:28.761Z,97185.94
2023-03-12T13:56:30.205Z,97184.63
2023-03-12T13:58:31.532Z,97183.25
2023-03-12T14:00:33.278Z,97178.00
2023-03-12T14:02:34.642Z,97190.97
2023-03-12T14:04:36.217Z,97186.25
2023-03-12T14:06:37.585Z,97170.88
2023-03-12T14:08:40.692Z,97181.03
2023-03-12T14:10:42.057Z,97180.81
2023-03-12T14:12:43.532Z,97174.88
2023-03-12T14:14:44.953Z,97169.53
2023-03-12T14:16:52.544Z,97170.25
2023-03-12T14:18:53.957Z,97171.03
2023-03-12T14:20:55.328Z,97185.47
2023-03-12T14:22:56.716Z,97170.84
2023-03-12T14:24:58.088Z,97168.25
2023-03-12T14:26:59.428Z,97169.06
2023-03-12T14:29:00.891Z,97160.41
2023-03-12T14:31:02.319Z,97169.28
2023-03-12T14:33:03.871Z,97164.47
2023-03-12T14:35:05.287Z,97156.50
2023-03-12T14:37:09.725Z,97146.25
2023-03-12T14:39:11.062Z,97145.50
2023-03-12T14:41:14.517Z,97140.72
2023-03-12T14:43:16.017Z,97131.00
2023-03-12T14:45:17.361Z,97128.84
2023-03-12T14:47:18.723Z,97121.31
2023-03-12T14:49:20.212Z,97116.94
2023-03-12T14:51:24.103Z,97115.44
2023-03-12T14:53:25.874Z,97109.28
2023-03-12T14:55:27.213Z,97105.44
2023-03-12T14:57:28.552Z,97105.69
2023-03-12T14:59:33.983Z,97102.38
2023-03-12T15:01:39.620Z,97094.72
2023-03-12T15:03:41.042Z,97089.63
2023-03-12T15:05:42.396Z,97092.81
2023-03-12T15:07:46.119Z,97088.59
2023-03-12T15:09:47.542Z,97084.38
2023-03-12T15:11:48.872Z,97007.91
2023-03-12T15:13:50.197Z,97081.75
2023-03-12T15:15:51.620Z,97083.47
2023-03-12T15:17:52.978Z,97086.03
2023-03-12T15:19:54.920Z,97088.47
2023-03-12T15:21:58.941Z,97085.00
2023-03-12T15:24:00.269Z,97082.34
2023-03-12T15:26:04.813Z,97080.88
2023-03-12T15:28:06.197Z,97073.94
2023-03-12T15:30:07.617Z,97065.88
2023-03-12T15:32:08.958Z,97062.47
2023-03-12T15:34:10.525Z,97059.56
2023-03-12T15:36:12.075Z,97059.69
2023-03-12T15:38:13.438Z,97060.69
2023-03-12T15:40:14.878Z,97053.19
2023-03-12T15:42:18.874Z,97062.81
2023-03-12T15:44:20.310Z,97050.97
2023-03-12T15:46:21.675Z,97046.59
2023-03-12T15:48:23.098Z,97050.41
2023-03-12T15:50:24.638Z,97046.19
2023-03-12T15:52:26.548Z,97051.59
2023-03-12T15:54:27.912Z,97054.06
2023-03-12T15:56:29.338Z,97041.53
2023-03-12T15:58:31.715Z,97049.78
2023-03-12T16:00:33.166Z,97053.44
2023-03-12T16:02:34.617Z,97050.25
2023-03-12T16:04:35.983Z,97042.03
2023-03-12T16:06:37.352Z,97040.78
2023-03-12T16:08:38.943Z,97036.06
2023-03-12T16:10:40.396Z,97032.63
2023-03-12T16:12:41.812Z,97024.06
2023-03-12T16:14:46.042Z,97020.44
2023-03-12T16:16:48.086Z,97028.50
2023-03-12T16:18:49.466Z,97031.84
2023-03-12T16:20:50.815Z,97032.59
2023-03-12T16:22:52.152Z,97034.78
2023-03-12T16:24:53.489Z,97043.88
2023-03-12T16:26:54.876Z,97031.00
2023-03-12T16:28:56.188Z,97041.13
2023-03-12T16:30:59.084Z,97026.38
2023-03-12T16:33:00.526Z,97024.31
2023-03-12T16:35:02.260Z,97019.13
2023-03-12T16:37:03.603Z,97009.78
2023-03-12T16:39:04.981Z,97015.59
2023-03-12T16:41:09.503Z,97014.00
2023-03-12T16:43:10.817Z,97014.34
2023-03-12T16:45:12.160Z,97006.16
2023-03-12T16:47:13.615Z,97002.72
2023-03-12T16:49:15.453Z,97006.03
2023-03-12T16:51:16.803Z,97006.03
2023-03-12T16:53:21.090Z,97009.34
2023-03-12T16:55:22.653Z,97018.47
2023-03-12T16:57:24.026Z,97019.94
2023-03-12T16:59:25.445Z,97023.44
2023-03-12T17:01:29.741Z,97030.06
2023-03-12T17:03:32.872Z,97028.34
2023-03-12T17:05:38.226Z,97032.94
2023-03-12T17:07:39.601Z,97044.72
2023-03-12T17:09:40.915Z,97042.38
2023-03-12T17:11:42.407Z,97048.59
2023-03-12T17:13:43.789Z,97043.59
2023-03-12T17:15:45.279Z,97041.22
2023-03-12T17:17:49.930Z,97032.78
2023-03-12T17:19:52.138Z,97040.63
2023-03-12T17:21:53.536Z,97029.50
2023-03-12T17:23:55.194Z,97029.09
2023-03-12T17:25:56.756Z,97021.22
2023-03-12T17:27:58.175Z,97018.09
2023-03-12T17:29:59.492Z,97031.56
2023-03-12T17:32:00.824Z,97030.44
2023-03-12T17:34:03.948Z,97034.34
2023-03-12T17:36:08.319Z,97045.84
2023-03-12T17:38:09.890Z,97038.59
2023-03-12T17:40:11.232Z,97044.22
2023-03-12T17:42:12.633Z,97047.38
2023-03-12T17:44:15.931Z,97045.31
2023-03-12T17:46:17.503Z,97043.50
2023-03-12T17:48:19.157Z,97046.06
2023-03-12T17:50:32.446Z,97046.81
2023-03-12T17:52:34.056Z,97050.31
2023-03-12T17:54:36.158Z,97044.34
2023-03-12T17:56:43.460Z,97042.81
2023-03-12T17:58:44.857Z,97044.47
2023-03-12T18:00:46.186Z,97042.97
2023-03-12T18:02:47.822Z,97033.59
2023-03-12T18:04:49.270Z,97031.59
2023-03-12T18:06:50.761Z,97028.69
2023-03-12T18:08:52.140Z,97028.06
2023-03-12T18:10:53.489Z,97040.03
2023-03-12T18:12:54.842Z,97033.78
2023-03-12T18:14:56.238Z,97035.94
2023-03-12T18:16:57.628Z,97035.66
2023-03-12T18:18:58.961Z,97047.00
2023-03-12T18:21:09.474Z,97061.84
2023-03-12T18:23:10.816Z,97059.69
2023-03-12T18:25:15.010Z,97062.47
2023-03-12T18:27:16.363Z,97055.78
2023-03-12T18:29:18.011Z,97059.06
2023-03-12T18:31:20.225Z,97040.41
2023-03-12T18:33:21.600Z,97047.59
2023-03-12T18:35:31.145Z,97061.78
2023-03-12T18:37:32.632Z,97047.78
2023-03-12T18:39:34.007Z,97055.41
2023-03-12T18:41:36.473Z,97049.63
2023-03-12T18:43:40.862Z,97046.22
2023-03-12T18:45:42.966Z,96928.09
2023-03-12T18:47:45.341Z,97056.75
2023-03-12T18:49:46.726Z,97048.19
2023-03-12T18:51:55.875Z,97040.53
2023-03-12T18:53:58.202Z,97034.34
2023-03-12T18:55:59.821Z,97045.28
2023-03-12T18:58:04.324Z,97047.78
2023-03-12T19:00:06.475Z,97052.88
2023-03-12T19:02:07.895Z,97053.94
2023-03-12T19:04:09.348Z,97044.72
2023-03-12T19:06:10.821Z,97049.84
2023-03-12T19:08:12.202Z,97047.09
2023-03-12T19:10:16.629Z,97046.31
2023-03-12T19:12:17.974Z,97059.78
2023-03-12T19:14:19.356Z,97049.53
2023-03-12T19:16:32.877Z,97049.78
2023-03-12T19:18:34.352Z,97052.34
2023-03-12T19:20:38.546Z,97049.16
2023-03-12T19:22:39.889Z,97041.66
2023-03-12T19:24:41.308Z,97046.63
2023-03-12T19:26:42.651Z,97052.44
2023-03-12T19:28:44.080Z,97052.06
2023-03-12T19:30:45.477Z,97060.63
2023-03-12T19:32:46.841Z,97069.78
2023-03-12T19:34:50.142Z,97056.78
2023-03-12T19:36:53.164Z,97056.84
2023-03-12T19:38:54.503Z,97061.34
2023-03-12T19:40:58.643Z,97069.06
2023-03-12T19:43:00.134Z,97071.44
2023-03-12T19:45:01.560Z,97071.50
2023-03-12T19:47:05.823Z,97079.81
2023-03-12T19:49:07.229Z,97082.16
2023-03-12T19:51:08.683Z,97080.84
2023-03-12T19:53:10.271Z,97080.38
2023-03-12T19:55:12.100Z,97079.31
2023-03-12T19:57:13.495Z,97069.06
2023-03-12T19:59:14.825Z,97058.84
2023-03-12T20:01:18.918Z,97063.13
2023-03-12T20:03:20.831Z,97065.69
2023-03-12T20:05:22.337Z,97068.09
2023-03-12T20:07:23.684Z,97060.25
2023-03-12T20:09:25.063Z,97072.94
2023-03-12T20:11:26.389Z,97067.13
2023-03-12T20:13:27.762Z,97066.25
2023-03-12T20:15:29.116Z,97067.59
2023-03-12T20:17:30.461Z,97077.94
2023-03-12T20:19:34.620Z,97105.34
2023-03-12T20:21:35.963Z,97079.06
2023-03-12T20:23:37.385Z,97072.47
2023-03-12T20:25:39.268Z,97070.69
2023-03-12T20:27:40.659Z,97083.34
2023-03-12T20:29:43.463Z,97080.63
2023-03-12T20:31:44.825Z,97072.16
2023-03-12T20:33:49.295Z,97066.06
2023-03-12T20:35:50.721Z,97072.78
2023-03-12T20:37:52.157Z,97070.22
2023-03-12T20:39:53.535Z,97065.88
2023-03-12T20:41:54.934Z,97063.19
2023-03-12T20:43:59.457Z,97064.91
2023-03-12T20:46:00.862Z,97063.13
2023-03-12T20:48:02.267Z,97063.97
2023-03-12T20:50:03.615Z,97067.34
2023-03-12T20:52:04.977Z,97063.91
2023-03-12T20:54:06.307Z,97061.25
2023-03-12T20:56:10.616Z,97062.31
2023-03-12T20:58:12.024Z,97064.66
2023-03-12T21:00:13.371Z,97062.59
2023-03-12T21:02:14.813Z,97070.97
2023-03-12T21:04:16.351Z,97069.09
2023-03-12T21:06:17.704Z,97072.34
2023-03-12T21:08:19.045Z,97061.22
2023-03-12T21:10:20.399Z,96926.06
2023-03-12T21:12:21.777Z,97067.03
2023-03-12T21:14:26.092Z,97066.13
2023-03-12T21:16:30.437Z,97072.16
2023-03-12T21:18:32.170Z,97073.88
2023-03-12T21:20:33.734Z,97084.94
2023-03-12T21:22:35.069Z,97070.75
2023-03-12T21:24:36.471Z,97063.53
2023-03-12T21:26:37.816Z,97068.72
2023-03-12T21:28:39.210Z,97078.56
2023-03-12T21:30:40.699Z,97069.41
2023-03-12T21:32:42.167Z,97073.41
2023-03-12T21:34:43.546Z,97066.13
2023-03-12T21:36:45.158Z,97069.38
2023-03-12T21:38:46.539Z,97081.31
2023-03-12T21:40:47.900Z,97077.81
2023-03-12T21:42:49.312Z,97083.81
2023-03-12T21:44:50.673Z,97082.19
2023-03-12T21:46:52.067Z,97081.16
2023-03-12T21:48:53.484Z,97088.81
2023-03-12T21:50:55.379Z,97085.41
2023-03-12T21:52:56.767Z,97087.22
2023-03-12T21:54:58.097Z,97074.44
2023-03-12T21:57:02.134Z,97070.13
2023-03-12T21:59:03.995Z,97058.25
2023-03-12T22:01:05.410Z,97054.91
2023-03-12T22:03:06.750Z,97059.34
2023-03-12T22:05:08.117Z,97066.97
2023-03-12T22:07:09.499Z,97054.09
2023-03-12T22:09:10.871Z,97043.78
2023-03-12T22:11:12.388Z,97053.16
2023-03-12T22:13:13.767Z,97052.06
2023-03-12T22:15:15.247Z,97044.94
2023-03-12T22:17:17.301Z,97044.06
2023-03-12T22:19:21.272Z,97045.91
2023-03-12T22:21:22.621Z,97043.44
2023-03-12T22:23:24.021Z,97037.47
2023-03-12T22:25:25.338Z,97044.19
2023-03-12T22:27:26.673Z,97037.38
2023-03-12T22:29:28.017Z,97035.75
2023-03-12T22:31:29.671Z,97034.78
2023-03-12T22:33:31.097Z,97043.34
2023-03-12T22:35:32.562Z,97036.56
2023-03-12T22:37:33.890Z,97029.09
2023-03-12T22:39:36.493Z,97020.38
2023-03-12T22:41:37.874Z,97023.69
2023-03-12T22:43:39.220Z,97019.34
2023-03-12T22:45:40.600Z,97019.59
2023-03-12T22:47:41.913Z,97017.88
2023-03-12T22:49:43.331Z,97012.19
2023-03-12T22:51:44.736Z,97014.19
2023-03-12T22:53:46.049Z,97015.22
2023-03-12T22:55:47.428Z,97019.63
2023-03-12T22:57:48.749Z,97021.34
2023-03-12T22:59:50.121Z,97017.56
2023-03-12T23:01:51.520Z,97014.44
2023-03-12T23:03:52.884Z,97024.69
2023-03-12T23:05:57.343Z,97010.09
2023-03-12T23:07:58.785Z,97012.69
2023-03-12T23:10:00.154Z,97011.88
2023-03-12T23:12:01.484Z,97015.56
2023-03-12T23:14:02.899Z,97016.75
2023-03-12T23:16:04.320Z,97018.03
2023-03-12T23:18:05.765Z,97012.41
2023-03-12T23:20:08.052Z,97012.78
2023-03-12T23:22:09.384Z,97006.59
2023-03-12T23:24:10.732Z,97012.25
2023-03-12T23:26:12.118Z,97007.78
2023-03-12T23:28:13.489Z,97013.59
2023-03-12T23:30:14.866Z,97007.59
2023-03-12T23:32:17.028Z,97004.88
2023-03-12T23:34:18.430Z,97007.41
2023-03-12T23:36:19.929Z,97005.59
2023-03-12T23:38:21.261Z,97005.59
2023-03-12T23:40:22.570Z,97004.88
2023-03-12T23:42:23.936Z,97010.84
2023-03-12T23:44:25.300Z,97013.59
2023-03-12T23:46:27.456Z,97004.38
2023-03-12T23:48:28.929Z,97009.66
2023-03-12T23:50:30.269Z,97007.22